createdAt,value
2023-02-18T00:00:32.818Z,10.10
2023-02-18T00:02:55.856Z,10.06
2023-02-18T00:05:17.397Z,10.11
2023-02-18T00:07:40.550Z,10.14
2023-02-18T00:10:04.884Z,10.15
2023-02-18T00:12:26.483Z,10.08
2023-02-18T00:14:47.917Z,10.07
2023-02-18T00:17:09.450Z,10.18
2023-02-18T00:19:30.891Z,10.04
2023-02-18T00:21:52.333Z,10.09
2023-02-18T00:24:16.461Z,10.10
2023-02-18T00:26:37.976Z,10.10
2023-02-18T00:28:59.651Z,10.12
2023-02-18T00:31:27.476Z,10.08
2023-02-18T00:33:49.107Z,10.12
2023-02-18T00:36:15.841Z,10.10
2023-02-18T00:38:37.703Z,10.15
2023-02-18T00:41:00.197Z,10.12
2023-02-18T00:43:21.638Z,10.16
2023-02-18T00:45:43.100Z,10.15
2023-02-18T00:48:04.628Z,10.12
2023-02-18T00:50:26.153Z,10.12
2023-02-18T00:52:47.629Z,10.13
2023-02-18T00:55:09.151Z,10.07
2023-02-18T00:57:30.594Z,10.08
2023-02-18T00:59:52.041Z,10.00
2023-02-18T01:02:13.514Z,10.02
2023-02-18T01:04:34.986Z,9.98
2023-02-18T01:06:56.522Z,9.97
2023-02-18T01:09:17.990Z,9.98
2023-02-18T01:11:39.438Z,10.01
2023-02-18T01:14:00.911Z,9.94
2023-02-18T01:16:23.036Z,10.00
2023-02-18T01:18:44.595Z,10.03
2023-02-18T01:21:08.821Z,9.90
2023-02-18T01:23:30.336Z,9.89
2023-02-18T01:25:52.226Z,9.92
2023-02-18T01:28:15.231Z,9.87
2023-02-18T01:30:36.746Z,10.02
2023-02-18T01:32:58.381Z,10.07
2023-02-18T01:35:20.449Z,10.14
2023-02-18T01:37:42.259Z,10.04
2023-02-18T01:40:05.182Z,10.13
2023-02-18T01:42:28.504Z,10.15
2023-02-18T01:44:50.487Z,10.14
2023-02-18T01:47:11.995Z,10.12
2023-02-18T01:49:35.978Z,10.09
2023-02-18T01:52:01.948Z,10.06
2023-02-18T01:54:34.220Z,10.09
2023-02-18T01:57:12.324Z,10.08
2023-02-18T01:59:46.666Z,10.18
2023-02-18T02:02:13.044Z,10.11
2023-02-18T02:04:34.892Z,10.11
2023-02-18T02:06:56.358Z,10.15
2023-02-18T02:09:21.473Z,10.08
2023-02-18T02:12:04.864Z,10.08
2023-02-18T02:14:35.807Z,10.10
2023-02-18T02:17:05.364Z,10.02
2023-02-18T02:19:35.608Z,9.98
2023-02-18T02:22:15.349Z,9.97
2023-02-18T02:24:48.861Z,9.99
2023-02-18T02:27:29.246Z,9.96
2023-02-18T02:30:28.486Z,10.02
2023-02-18T02:33:02.282Z,9.96
2023-02-18T02:35:28.266Z,10.02
2023-02-18T02:38:00.163Z,10.06
2023-02-18T02:40:30.324Z,10.14
2023-02-18T02:43:03.078Z,10.12
2023-02-18T02:45:38.605Z,10.18
2023-02-18T02:48:10.268Z,10.28
2023-02-18T02:50:44.959Z,10.21
2023-02-18T02:53:14.694Z,10.30
2023-02-18T02:55:36.132Z,10.24
2023-02-18T02:57:57.770Z,10.26
2023-02-18T03:00:41.016Z,10.26
2023-02-18T03:03:27.403Z,10.29
2023-02-18T03:06:07.423Z,10.33
2023-02-18T03:08:28.955Z,10.29
2023-02-18T03:11:04.938Z,10.28
2023-02-18T03:13:52.925Z,10.19
2023-02-18T03:16:21.197Z,10.27
2023-02-18T03:19:05.877Z,10.26
2023-02-18T03:21:35.992Z,10.36
2023-02-18T03:24:02.846Z,10.37
2023-02-18T03:26:25.552Z,10.30
2023-02-18T03:28:51.411Z,10.37
2023-02-18T03:31:18.716Z,10.25
2023-02-18T03:33:48.062Z,10.23
2023-02-18T03:36:10.418Z,10.25
2023-02-18T03:38:43.818Z,10.23
2023-02-18T03:41:06.123Z,10.19
2023-02-18T03:43:29.120Z,10.26
2023-02-18T03:45:50.974Z,10.23
2023-02-18T03:48:12.405Z,10.20
2023-02-18T03:50:34.124Z,10.24
2023-02-18T03:52:55.623Z,10.13
2023-02-18T03:55:17.214Z,10.25
2023-02-18T03:57:38.751Z,10.12
2023-02-18T04:00:00.238Z,10.15
2023-02-18T04:02:21.709Z,10.25
2023-02-18T04:04:43.282Z,10.32
2023-02-18T04:07:04.730Z,10.22
2023-02-18T04:09:26.185Z,10.19
2023-02-18T04:11:47.653Z,10.14
2023-02-18T04:14:10.075Z,10.17
2023-02-18T04:16:31.665Z,10.18
2023-02-18T04:18:53.090Z,10.28
2023-02-18T04:21:14.532Z,10.17
2023-02-18T04:23:36.012Z,10.17
2023-02-18T04:25:57.677Z,10.10
2023-02-18T04:28:19.120Z,10.12
2023-02-18T04:30:40.817Z,10.18
2023-02-18T04:33:02.334Z,10.16
2023-02-18T04:35:23.849Z,10.15
2023-02-18T04:37:45.354Z,10.12
2023-02-18T04:40:08.153Z,10.15
2023-02-18T04:42:29.760Z,10.13
2023-02-18T04:44:51.217Z,10.13
2023-02-18T04:47:12.724Z,10.13
2023-02-18T04:49:34.528Z,10.13
2023-02-18T04:51:55.970Z,10.13
2023-02-18T04:54:17.408Z,10.12
2023-02-18T04:56:38.886Z,10.15
2023-02-18T04:59:00.437Z,10.22
2023-02-18T05:01:22.013Z,10.18
2023-02-18T05:03:45.986Z,10.14
2023-02-18T05:06:07.978Z,10.16
2023-02-18T05:08:29.619Z,10.07
2023-02-18T05:10:51.100Z,10.07
2023-02-18T05:13:12.589Z,10.12
2023-02-18T05:15:34.088Z,10.02
2023-02-18T05:17:55.566Z,9.98
2023-02-18T05:20:17.092Z,10.05
2023-02-18T05:22:38.918Z,9.95
2023-02-18T05:25:00.400Z,9.98
2023-02-18T05:27:21.889Z,9.97
2023-02-18T05:29:43.321Z,10.01
2023-02-18T05:32:04.982Z,10.01
2023-02-18T05:34:26.447Z,10.08
2023-02-18T05:36:48.036Z,10.03
2023-02-18T05:39:09.478Z,9.93
2023-02-18T05:41:31.008Z,9.94
2023-02-18T05:44:10.746Z,9.97
2023-02-18T05:46:32.270Z,9.98
2023-02-18T05:48:53.739Z,10.00
2023-02-18T05:51:15.893Z,9.92
2023-02-18T05:53:37.585Z,9.98
2023-02-18T05:55:59.037Z,9.96
2023-02-18T05:58:20.518Z,9.96
2023-02-18T06:00:41.934Z,9.94
2023-02-18T06:03:03.532Z,9.92
2023-02-18T06:05:25.253Z,9.92
2023-02-18T06:07:46.832Z,9.94
2023-02-18T06:10:10.092Z,9.91
2023-02-18T06:12:31.595Z,9.94
2023-02-18T06:14:53.140Z,9.90
2023-02-18T06:17:15.683Z,9.95
2023-02-18T06:19:37.337Z,9.97
2023-02-18T06:21:58.775Z,9.98
2023-02-18T06:24:20.211Z,9.91
2023-02-18T06:26:41.739Z,10.01
2023-02-18T06:29:03.909Z,10.02
2023-02-18T06:31:25.510Z,10.01
2023-02-18T06:33:47.015Z,10.03
2023-02-18T06:36:11.716Z,10.07
2023-02-18T06:38:34.881Z,10.10
2023-02-18T06:40:56.300Z,10.14
2023-02-18T06:43:19.012Z,10.09
2023-02-18T06:45:40.574Z,10.15
2023-02-18T06:48:02.040Z,10.07
2023-02-18T06:50:23.466Z,10.07
2023-02-18T06:52:45.172Z,10.11
2023-02-18T06:55:09.376Z,10.13
2023-02-18T06:57:31.481Z,10.19
2023-02-18T06:59:52.988Z,10.33
2023-02-18T07:02:14.455Z,10.31
2023-02-18T07:04:35.893Z,10.15
2023-02-18T07:06:57.436Z,10.22
2023-02-18T07:09:18.878Z,10.25
2023-02-18T07:11:40.369Z,10.19
2023-02-18T07:14:01.948Z,10.25
2023-02-18T07:16:23.441Z,10.26
2023-02-18T07:18:46.046Z,10.32
2023-02-18T07:21:07.518Z,10.38
2023-02-18T07:23:28.985Z,10.40
2023-02-18T07:25:50.431Z,10.37
2023-02-18T07:28:11.970Z,10.36
2023-02-18T07:30:33.648Z,10.39
2023-02-18T07:32:55.238Z,10.36
2023-02-18T07:35:17.164Z,10.45
2023-02-18T07:37:38.663Z,10.39
2023-02-18T07:40:00.198Z,10.48
2023-02-18T07:42:21.702Z,10.52
2023-02-18T07:44:43.357Z,10.58
2023-02-18T07:47:06.502Z,10.62
2023-02-18T07:49:28.069Z,10.67
2023-02-18T07:51:50.426Z,10.70
2023-02-18T07:54:11.865Z,10.73
2023-02-18T07:56:33.288Z,10.77
2023-02-18T07:58:54.747Z,10.83
2023-02-18T08:01:16.803Z,10.76
2023-02-18T08:03:38.384Z,10.82
2023-02-18T08:05:59.925Z,10.84
2023-02-18T08:08:27.000Z,10.73
2023-02-18T08:10:49.520Z,10.82
2023-02-18T08:13:11.090Z,10.81
2023-02-18T08:15:32.664Z,10.82
2023-02-18T08:17:54.112Z,10.85
2023-02-18T08:20:15.823Z,10.84
2023-02-18T08:22:37.874Z,10.88
2023-02-18T08:24:59.371Z,10.83
2023-02-18T08:27:20.825Z,11.02
2023-02-18T08:29:42.279Z,11.05
2023-02-18T08:32:03.842Z,10.91
2023-02-18T08:34:25.912Z,10.94
2023-02-18T08:36:47.416Z,10.82
2023-02-18T08:39:08.863Z,10.67
2023-02-18T08:41:30.291Z,10.69
2023-02-18T08:43:51.896Z,10.59
2023-02-18T08:46:15.993Z,10.67
2023-02-18T08:48:37.978Z,10.63
2023-02-18T08:51:00.106Z,10.54
2023-02-18T08:53:21.979Z,10.62
2023-02-18T08:55:44.085Z,10.66
2023-02-18T08:58:06.782Z,10.68
2023-02-18T09:00:28.343Z,10.66
2023-02-18T09:02:50.254Z,10.63
2023-02-18T09:05:12.745Z,10.71
2023-02-18T09:07:34.206Z,10.68
2023-02-18T09:09:55.680Z,10.63
2023-02-18T09:12:17.102Z,10.54
2023-02-18T09:14:38.552Z,10.38
2023-02-18T09:17:00.219Z,10.39
2023-02-18T09:19:21.781Z,10.30
2023-02-18T09:21:43.370Z,10.31
2023-02-18T09:24:05.048Z,10.20
2023-02-18T09:26:27.408Z,10.18
2023-02-18T09:28:50.042Z,10.19
2023-02-18T09:31:14.326Z,10.20
2023-02-18T09:33:40.920Z,10.23
2023-02-18T09:36:02.352Z,10.17
2023-02-18T09:38:23.791Z,10.12
2023-02-18T09:40:48.816Z,10.01
2023-02-18T09:43:22.516Z,9.97
2023-02-18T09:45:44.081Z,10.10
2023-02-18T09:48:05.641Z,9.96
2023-02-18T09:50:33.829Z,9.84
2023-02-18T09:52:55.981Z,9.81
2023-02-18T09:55:20.478Z,9.86
2023-02-18T09:57:45.512Z,9.94
2023-02-18T10:00:15.054Z,9.90
2023-02-18T10:02:38.398Z,9.99
2023-02-18T10:04:59.869Z,10.10
2023-02-18T10:07:28.573Z,10.04
2023-02-18T10:09:52.049Z,10.11
2023-02-18T10:12:17.286Z,10.23
2023-02-18T10:14:38.798Z,10.34
2023-02-18T10:17:00.358Z,10.49
2023-02-18T10:19:41.086Z,10.42
2023-02-18T10:22:05.355Z,10.62
2023-02-18T10:24:26.794Z,10.62
2023-02-18T10:26:49.401Z,10.69
2023-02-18T10:29:21.270Z,10.67
2023-02-18T10:31:57.919Z,10.57
2023-02-18T10:34:41.564Z,10.58
2023-02-18T10:37:37.752Z,10.76
2023-02-18T10:40:27.818Z,10.86
2023-02-18T10:43:22.409Z,11.03
2023-02-18T10:45:51.202Z,11.01
2023-02-18T10:48:37.067Z,10.94
2023-02-18T10:51:02.721Z,10.92
2023-02-18T10:53:38.659Z,10.84
2023-02-18T10:56:00.358Z,11.02
2023-02-18T10:58:41.887Z,11.06
2023-02-18T11:01:08.644Z,10.98
2023-02-18T11:03:45.433Z,10.95
2023-02-18T11:06:21.248Z,10.80
2023-02-18T11:08:45.367Z,10.61
2023-02-18T11:11:16.277Z,10.53
2023-02-18T11:13:37.835Z,10.71
2023-02-18T11:16:05.054Z,10.86
2023-02-18T11:18:26.516Z,11.28
2023-02-18T11:20:57.861Z,11.64
2023-02-18T11:23:21.669Z,11.67
2023-02-18T11:26:01.696Z,11.48
2023-02-18T11:28:42.671Z,11.24
2023-02-18T11:31:05.352Z,11.53
2023-02-18T11:33:31.805Z,11.44
2023-02-18T11:35:58.317Z,11.93
2023-02-18T11:38:36.829Z,11.63
2023-02-18T11:41:07.788Z,11.44
2023-02-18T11:43:31.300Z,11.55
2023-02-18T11:46:12.288Z,11.26
2023-02-18T11:48:33.865Z,11.40
2023-02-18T11:51:02.267Z,11.47
2023-02-18T11:53:28.443Z,11.41
2023-02-18T11:55:59.275Z,11.61
2023-02-18T11:58:20.748Z,11.62
2023-02-18T12:00:47.937Z,11.79
2023-02-18T12:03:24.842Z,11.81
2023-02-18T12:05:46.915Z,11.61
2023-02-18T12:08:19.298Z,11.50
2023-02-18T12:10:50.317Z,11.23
2023-02-18T12:13:38.271Z,10.85
2023-02-18T12:16:14.819Z,10.79
2023-02-18T12:18:45.047Z,10.53
2023-02-18T12:21:18.130Z,10.48
2023-02-18T12:24:14.968Z,10.41
2023-02-18T12:26:49.152Z,10.31
2023-02-18T12:29:36.137Z,10.12
2023-02-18T12:32:16.146Z,10.21
2023-02-18T12:34:50.732Z,10.32
2023-02-18T12:37:29.524Z,10.18
2023-02-18T12:40:15.167Z,10.22
2023-02-18T12:42:53.348Z,10.13
2023-02-18T12:45:39.308Z,10.03
2023-02-18T12:48:03.578Z,10.01
2023-02-18T12:50:50.168Z,9.98
2023-02-18T12:53:29.817Z,10.03
2023-02-18T12:55:58.879Z,10.22
2023-02-18T12:58:38.759Z,10.48
2023-02-18T13:01:18.944Z,10.70
2023-02-18T13:04:21.948Z,10.69
2023-02-18T13:07:16.782Z,10.91
2023-02-18T13:09:59.863Z,10.67
2023-02-18T13:12:31.075Z,10.69
2023-02-18T13:15:03.225Z,10.88
2023-02-18T13:17:27.520Z,10.85
2023-02-18T13:20:03.474Z,10.85
2023-02-18T13:22:29.137Z,10.85
2023-02-18T13:24:52.154Z,10.72
2023-02-18T13:27:18.319Z,10.74
2023-02-18T13:29:51.160Z,10.74
2023-02-18T13:32:34.132Z,10.62
2023-02-18T13:35:00.172Z,10.37
2023-02-18T13:37:37.477Z,10.29
2023-02-18T13:40:00.752Z,10.26
2023-02-18T13:42:31.318Z,10.40
2023-02-18T13:44:55.483Z,10.40
2023-02-18T13:47:37.021Z,10.22
2023-02-18T13:49:58.491Z,10.34
2023-02-18T13:52:20.607Z,10.28
2023-02-18T13:54:46.911Z,10.31
2023-02-18T13:57:21.884Z,10.24
2023-02-18T13:59:52.590Z,10.18
2023-02-18T14:02:20.428Z,10.24
2023-02-18T14:04:42.218Z,10.27
2023-02-18T14:07:33.041Z,10.31
2023-02-18T14:09:57.316Z,10.21
2023-02-18T14:12:30.712Z,10.26
2023-02-18T14:14:53.242Z,10.22
2023-02-18T14:17:20.654Z,10.20
2023-02-18T14:19:42.122Z,10.22
2023-02-18T14:22:24.433Z,10.39
2023-02-18T14:24:55.654Z,10.34
2023-02-18T14:27:17.412Z,10.20
2023-02-18T14:29:39.423Z,10.17
2023-02-18T14:32:04.971Z,10.11
2023-02-18T14:34:46.083Z,9.93
2023-02-18T14:37:31.863Z,9.89
2023-02-18T14:40:19.349Z,9.98
2023-02-18T14:43:00.898Z,9.83
2023-02-18T14:45:45.767Z,9.80
2023-02-18T14:48:44.779Z,9.77
2023-02-18T14:51:06.784Z,9.73
2023-02-18T14:53:29.025Z,9.62
2023-02-18T14:56:03.892Z,9.74
2023-02-18T14:58:41.519Z,9.72
2023-02-18T15:01:25.224Z,9.73
2023-02-18T15:03:51.173Z,9.70
2023-02-18T15:06:23.314Z,9.80
2023-02-18T15:08:44.749Z,9.71
2023-02-18T15:11:08.120Z,9.75
2023-02-18T15:13:36.085Z,9.64
2023-02-18T15:16:00.439Z,9.67
2023-02-18T15:18:26.550Z,9.69
2023-02-18T15:20:48.193Z,9.72
2023-02-18T15:23:15.964Z,9.65
2023-02-18T15:25:37.534Z,9.69
2023-02-18T15:27:59.071Z,9.63
2023-02-18T15:30:31.128Z,9.63
2023-02-18T15:32:54.391Z,9.63
2023-02-18T15:35:18.921Z,9.62
2023-02-18T15:37:45.222Z,9.50
2023-02-18T15:40:16.310Z,9.54
2023-02-18T15:42:38.213Z,9.50
2023-02-18T15:45:25.535Z,9.50
2023-02-18T15:47:58.397Z,9.47
2023-02-18T15:50:33.914Z,9.50
2023-02-18T15:52:58.205Z,9.58
2023-02-18T15:55:25.216Z,9.51
2023-02-18T15:57:47.242Z,9.39
2023-02-18T16:00:28.618Z,9.38
2023-02-18T16:02:57.155Z,9.31
2023-02-18T16:05:18.952Z,9.21
2023-02-18T16:07:58.385Z,9.26
2023-02-18T16:10:36.952Z,9.25
2023-02-18T16:13:01.744Z,9.26
2023-02-18T16:15:32.369Z,9.23
2023-02-18T16:17:53.864Z,9.20
2023-02-18T16:20:28.900Z,9.33
2023-02-18T16:22:53.031Z,9.29
2023-02-18T16:25:21.209Z,9.26
2023-02-18T16:27:57.949Z,9.28
2023-02-18T16:30:26.369Z,9.23
2023-02-18T16:32:48.004Z,9.19
2023-02-18T16:35:09.709Z,9.23
2023-02-18T16:37:40.049Z,9.25
2023-02-18T16:40:01.502Z,9.19
2023-02-18T16:42:22.962Z,9.16
2023-02-18T16:44:44.372Z,9.17
2023-02-18T16:47:07.156Z,9.23
2023-02-18T16:49:28.990Z,9.26
2023-02-18T16:51:50.415Z,9.20
2023-02-18T16:54:12.412Z,9.28
2023-02-18T16:56:35.453Z,9.25
2023-02-18T16:58:57.488Z,9.29
2023-02-18T17:01:26.089Z,9.25
2023-02-18T17:03:48.898Z,9.31
2023-02-18T17:06:10.957Z,9.27
2023-02-18T17:08:32.964Z,9.29
2023-02-18T17:10:57.174Z,9.32
2023-02-18T17:13:21.929Z,9.23
2023-02-18T17:15:43.827Z,9.22
2023-02-18T17:18:05.497Z,9.24
2023-02-18T17:20:28.384Z,9.24
2023-02-18T17:22:49.909Z,9.34
2023-02-18T17:25:19.918Z,9.29
2023-02-18T17:27:41.365Z,9.29
2023-02-18T17:30:02.984Z,9.30
2023-02-18T17:32:24.447Z,9.31
2023-02-18T17:34:45.914Z,9.24
2023-02-18T17:37:13.079Z,9.28
2023-02-18T17:39:34.556Z,9.21
2023-02-18T17:41:55.984Z,9.27
2023-02-18T17:44:20.591Z,9.22
2023-02-18T17:46:42.450Z,9.22
2023-02-18T17:49:03.912Z,9.22
2023-02-18T17:51:27.821Z,9.18
2023-02-18T17:53:49.269Z,9.25
2023-02-18T17:56:12.924Z,9.27
2023-02-18T17:58:34.360Z,9.16
2023-02-18T18:00:57.467Z,9.20
2023-02-18T18:03:19.290Z,9.25
2023-02-18T18:05:44.634Z,9.22
2023-02-18T18:08:07.492Z,9.18
2023-02-18T18:10:32.102Z,9.22
2023-02-18T18:12:53.548Z,9.26
2023-02-18T18:15:20.793Z,9.28
2023-02-18T18:17:42.374Z,9.26
2023-02-18T18:20:04.141Z,9.18
2023-02-18T18:22:25.572Z,9.14
2023-02-18T18:24:47.139Z,9.15
2023-02-18T18:27:09.573Z,9.20
2023-02-18T18:29:31.170Z,9.21
2023-02-18T18:31:52.663Z,9.20
2023-02-18T18:34:16.697Z,9.24
2023-02-18T18:36:38.136Z,9.25
2023-02-18T18:38:59.580Z,9.29
2023-02-18T18:41:22.690Z,9.24
2023-02-18T18:43:44.236Z,9.19
2023-02-18T18:46:06.179Z,9.30
2023-02-18T18:48:27.737Z,9.35
2023-02-18T18:50:50.968Z,9.32
2023-02-18T18:53:24.954Z,9.27
2023-02-18T18:55:47.813Z,9.25
2023-02-18T18:58:09.298Z,9.26
2023-02-18T19:00:33.729Z,9.32
2023-02-18T19:02:55.449Z,9.23
2023-02-18T19:05:26.669Z,9.30
2023-02-18T19:07:48.270Z,9.24
2023-02-18T19:10:09.943Z,9.29
2023-02-18T19:12:31.438Z,9.28
2023-02-18T19:14:52.945Z,9.22
2023-02-18T19:17:14.410Z,9.18
2023-02-18T19:19:35.858Z,9.23
2023-02-18T19:21:57.410Z,9.19
2023-02-18T19:24:18.865Z,9.26
2023-02-18T19:26:40.317Z,9.21
2023-02-18T19:29:01.758Z,9.29
2023-02-18T19:31:24.440Z,9.22
2023-02-18T19:33:47.249Z,9.26
2023-02-18T19:36:10.618Z,9.30
2023-02-18T19:38:32.053Z,9.28
2023-02-18T19:40:53.988Z,9.28
2023-02-18T19:43:15.770Z,9.40
2023-02-18T19:45:45.877Z,9.42
2023-02-18T19:48:07.307Z,9.39
2023-02-18T19:50:31.306Z,9.38
2023-02-18T19:52:54.128Z,9.36
2023-02-18T19:55:15.574Z,9.28
2023-02-18T19:57:37.269Z,9.36
2023-02-18T19:59:58.740Z,9.31
2023-02-18T20:02:22.507Z,9.32
2023-02-18T20:04:44.344Z,9.37
2023-02-18T20:07:05.935Z,9.41
2023-02-18T20:09:27.459Z,9.45
2023-02-18T20:11:48.948Z,9.38
2023-02-18T20:14:10.436Z,9.48
2023-02-18T20:16:31.925Z,9.48
2023-02-18T20:18:53.987Z,9.54
2023-02-18T20:21:15.490Z,9.37
2023-02-18T20:23:36.896Z,9.42
2023-02-18T20:25:58.477Z,9.49
2023-02-18T20:28:19.910Z,9.43
2023-02-18T20:30:41.587Z,9.54
2023-02-18T20:33:03.091Z,9.50
2023-02-18T20:35:25.176Z,9.50
2023-02-18T20:37:46.598Z,9.48
2023-02-18T20:40:08.444Z,9.43
2023-02-18T20:42:29.910Z,9.56
2023-02-18T20:44:51.847Z,9.56
2023-02-18T20:47:13.701Z,9.50
2023-02-18T20:49:35.543Z,9.54
2023-02-18T20:51:57.046Z,9.53
2023-02-18T20:54:19.777Z,9.59
2023-02-18T20:56:43.366Z,9.54
2023-02-18T20:59:05.499Z,9.59
2023-02-18T21:01:27.104Z,9.53
2023-02-18T21:03:48.944Z,9.61
2023-02-18T21:06:13.975Z,9.63
2023-02-18T21:08:40.330Z,9.66
2023-02-18T21:11:04.049Z,9.64
2023-02-18T21:13:26.176Z,9.65
2023-02-18T21:15:48.304Z,9.71
2023-02-18T21:18:09.853Z,9.54
2023-02-18T21:20:31.379Z,9.61
2023-02-18T21:22:54.193Z,9.57
2023-02-18T21:25:16.915Z,9.50
2023-02-18T21:27:38.326Z,9.49
2023-02-18T21:30:00.319Z,9.46
2023-02-18T21:32:21.895Z,9.37
2023-02-18T21:34:43.419Z,9.43
2023-02-18T21:37:04.923Z,9.47
2023-02-18T21:39:26.370Z,9.33
2023-02-18T21:41:47.814Z,9.30
2023-02-18T21:44:10.456Z,9.31
2023-02-18T21:46:33.846Z,9.30
2023-02-18T21:49:09.459Z,9.26
2023-02-18T21:52:00.675Z,9.26
2023-02-18T21:54:33.941Z,9.27
2023-02-18T21:56:56.534Z,9.25
2023-02-18T21:59:19.300Z,9.22
2023-02-18T22:01:41.373Z,9.11
2023-02-18T22:04:03.060Z,9.14
2023-02-18T22:06:24.695Z,9.15
2023-02-18T22:08:46.170Z,9.10
2023-02-18T22:11:07.846Z,9.15
2023-02-18T22:13:29.396Z,9.08
2023-02-18T22:15:55.430Z,9.12
2023-02-18T22:18:16.866Z,9.12
2023-02-18T22:20:38.630Z,9.07
2023-02-18T22:23:00.055Z,9.02
2023-02-18T22:25:21.558Z,9.03
2023-02-18T22:27:42.938Z,9.08
2023-02-18T22:30:04.977Z,9.11
2023-02-18T22:32:26.532Z,9.08
2023-02-18T22:34:47.982Z,8.98
2023-02-18T22:37:09.531Z,9.03
2023-02-18T22:39:31.690Z,9.17
2023-02-18T22:41:53.139Z,9.11
2023-02-18T22:44:17.465Z,9.04
2023-02-18T22:46:39.809Z,9.09
2023-02-18T22:49:04.182Z,9.06
2023-02-18T22:51:29.251Z,9.18
2023-02-18T22:53:52.743Z,9.16
2023-02-18T22:56:18.311Z,9.03
2023-02-18T22:58:41.037Z,9.01
2023-02-18T23:01:03.527Z,9.03
2023-02-18T23:03:27.322Z,8.99
2023-02-18T23:05:49.227Z,8.93
2023-02-18T23:08:11.043Z,8.97
2023-02-18T23:10:32.523Z,9.00
2023-02-18T23:12:55.413Z,9.02
2023-02-18T23:15:16.931Z,9.01
2023-02-18T23:17:38.410Z,8.98
2023-02-18T23:19:59.868Z,9.04
2023-02-18T23:22:28.664Z,9.04
2023-02-18T23:24:50.226Z,9.01
2023-02-18T23:27:14.188Z,8.98
2023-02-18T23:29:35.917Z,8.97
2023-02-18T23:31:57.777Z,8.99
2023-02-18T23:34:19.274Z,9.03
2023-02-18T23:36:40.808Z,9.07
2023-02-18T23:39:05.733Z,9.02
2023-02-18T23:41:28.537Z,9.05
2023-02-18T23:43:50.562Z,9.04
2023-02-18T23:46:13.161Z,9.04
2023-02-18T23:48:38.258Z,9.06
2023-02-18T23:51:01.149Z,8.98
2023-02-18T23:53:25.456Z,9.03
2023-02-18T23:55:46.955Z,9.00
2023-02-18T23:58:08.524Z,8.96
